Flugplatz Neuburg AB (ETSN)

Hier findest Du alle Informationen zum Flugplatz Neuburg AB (ETSN).

Informationen für Piloten zum Flugplatz Neuburg AB

Hier findest Du alle relevanten Informationen, die Du als Pilot benötigst, um Neuburg AB anzufliegen.

Flugplatz: Neuburg AB ICAO-Code: ETSN
Frequenz Turm: - GAFOR Gebiet: -
Frequenz Ground: - Mogas: nein
Platzrunde: - Landegebühr: -
Platzhöhe: Sunrise: 07:00 Uhr UTC
Pisten: Sunset: 15:48 Uhr UTC

Mitglieder, die in Neuburg AB fliegen

Flugwetter am Flugplatz Neuburg AB

Die METAR Information stammen aus EDMA (37.96 km entfernt).

METAR Code:
2021/01/03 15:20
EDMA 031520Z 03002KT 9999 OVC014 00/M02 Q1009

Temperatur: 1,0 °C Niederschlag: - Wind: 5,0 kt
Temperatur (min.): 1,0 °C Luftdruck: 1021 hPa Windrichtung: 350 °
Temperatur (max.): 1,1 °C Luftfeuchtigkeit: 69 % Bewölkung: 2/8

Flugschulen am Flugplatz Neuburg AB

Am Flugplatz Neuburg AB gibt es eine Flugschule.

Benachbarte Flugplätze und Flugschulen

Es gibt 11 weitere Flugplätze in einem Umkreis von 50 km um den Flugplatz Neuburg AB.

Jetzt anmelden

Passwort vergessen

Umfrage Archiv

Seid Ihr aufgrund von Corona im Jahr 2020 mehr oder weniger geflogen als im Jahr zuvor?

weniger
47.2 %
gleich viel
30.6 %
mehr
22.2 %
Stimmen: 36 | Diskussion
Anzeige: Roland Aircraft
Statistik Alle Mitglieder

Aktuell sind 50 Besucher online, davon 2 Mitglieder und 48 Gäste.


Mitglieder online:
lucas52  raller 

Anzeige: VFR Sprechfunk Simulator


Anzeige: Pocket FMS